Terminal Aerodrome Forecast
Issued by NWS

Home | Current Version | Previous Version | Text Only | Print | Product List | Glossary On
Versions: 1 2 3 4 5 6 7 8 9 10 11 12 13
000
FTUS43 KUNR 212300
TAFGCC
TAF
KGCC 212320Z 2200/2224 14008KT P6SM BKN150
     FM220400 17012KT P6SM SCT100 SCT250
     FM222200 20015KT P6SM BKN150=

USA.gov is the U.S. government's official web portal to all federal, state and local government web resources and services.